Weather History for Homestead AFB, FL

Change the Weather History Date:

Wednesday, January 8, 2014

  Actual Average Record
Temperature  
Mean Temperature 60 °F -  
Max Temperature 69 °F 76 °F 85 °F (1938)
Min Temperature 50 °F 55 °F 34 °F (1970)
Degree Days  
Heating Degree Days 6    
Growing Degree Days 10 (Base 50)    
Moisture  
Dew Point 65 °F    
Average Humidity 98    
Maximum Humidity 100    
Minimum Humidity 88    
Precipitation  
Precipitation 0.14 in - - ()
Sea Level Pressure  
Sea Level Pressure 30.22 in    
Wind  
Wind Speed 13 mph (NE)    
Max Wind Speed 25 mph    
Max Gust Speed 30 mph    
Visibility 8 miles    
Events Rain    
Averages and records for this station are not official NWS values.
T = Trace of Precipitation, MM = Missing Value Source: NWS Daily Summary

Daily Weather History Graph

Daily Weather History Graph

Search for Another Location

Airport:

Trip Planner

Search our weather history database for the weather conditions in past years. The results will help you decide how hot, cold, wet, or windy it might be!

Date:

Astronomy

Jan. 08, 2014 Rise Set
Actual Time 7:09 AM EST 5:47 PM EST
Civil Twilight 6:44 AM EST 6:12 PM EST
Nautical Twilight 6:15 AM EST 6:40 PM EST
Astronomical Twilight 5:47 AM EST 7:08 PM EST
Moon 12:21 PM EST (1/8) 12:34 AM EST (1/8)
Length of Visible Light 11h 28m
Length of Day
10h 38m
First Quarter, 56% of the Moon is Illuminated
Jan 8
First Quarter
Jan 15
Full
Jan 24
Last Quarter
Jan 30
New
Feb 6
First Quarter

Hourly Weather History & Observations

Time (EST) Temp. Dew Point Humidity Pressure Visibility Wind Dir Wind Speed Gust Speed Precip Events Conditions
12:08 AM 51.8 °F 48.2 °F 88% 30.27 in 10.0 mi North 10.4 mph - N/A   Overcast
12:15 AM 51.8 °F 48.2 °F 88% 30.26 in 10.0 mi North 10.4 mph - N/A   Light Drizzle
12:30 AM 51.8 °F 48.2 °F 88% 30.26 in 10.0 mi North 10.4 mph - N/A Rain Light Rain
12:58 AM 50.5 °F 48.9 °F 94% 30.26 in 10.0 mi NNW 10.4 mph - 0.01 in Rain Light Rain
1:03 AM 50.0 °F 48.2 °F 94% 30.25 in 10.0 mi NNW 10.4 mph - N/A Rain Light Rain
1:18 AM 50.0 °F 50.0 °F 100% 30.24 in 10.0 mi North 9.2 mph - N/A   Overcast
1:43 AM 51.8 °F 50.0 °F 94% 30.23 in 10.0 mi North 10.4 mph - N/A   Overcast
1:58 AM 51.4 °F 51.3 °F 99% 30.24 in 10.0 mi North 10.4 mph - 0.00 in   Overcast
2:33 AM 51.8 °F 51.8 °F 100% 30.23 in 10.0 mi North 6.9 mph - N/A   Overcast
2:58 AM 52.3 °F 52.3 °F 100% 30.24 in 10.0 mi North 8.1 mph - N/A   Overcast
3:58 AM 53.4 °F 53.4 °F 100% 30.23 in 10.0 mi North 5.8 mph - N/A   Overcast
4:58 AM 54.5 °F 54.5 °F 100% 30.22 in 10.0 mi North 5.8 mph - N/A   Overcast
5:53 AM 57.2 °F 57.2 °F 100% 30.20 in 10.0 mi NNE 9.2 mph - N/A   Overcast
5:58 AM 56.8 °F 56.8 °F 100% 30.21 in 10.0 mi North 6.9 mph - N/A   Overcast
6:23 AM 57.2 °F 57.2 °F 100% 30.20 in 10.0 mi NNE 8.1 mph - N/A   Mostly Cloudy
6:53 AM 59.0 °F 59.0 °F 100% 30.21 in 10.0 mi NNW 9.2 mph - N/A   Mostly Cloudy
6:58 AM 58.8 °F 58.8 °F 100% 30.23 in 10.0 mi NNW 9.2 mph - N/A   Mostly Cloudy
7:08 AM 59.0 °F 59.0 °F 100% 30.22 in 10.0 mi North 8.1 mph - N/A   Mostly Cloudy
7:13 AM 59.0 °F 59.0 °F 100% 30.22 in 10.0 mi NNE 8.1 mph - N/A   Mostly Cloudy
7:23 AM 60.8 °F 60.8 °F 100% 30.22 in 10.0 mi NE 8.1 mph - N/A   Mostly Cloudy
7:32 AM 60.8 °F 60.8 °F 100% 30.23 in 10.0 mi NNE 9.2 mph - N/A   Light Drizzle
7:44 AM 62.6 °F 62.6 °F 100% 30.22 in 10.0 mi ENE 13.8 mph 19.6 mph N/A   Mostly Cloudy
7:53 AM 64.4 °F 64.4 °F 100% 30.23 in 10.0 mi ENE 13.8 mph 20.7 mph N/A Rain Light Rain
7:58 AM 64.4 °F 64.4 °F 100% 30.24 in 10.0 mi ENE 16.1 mph 21.9 mph 0.00 in Rain Light Rain
8:38 AM 66.2 °F 66.2 °F 100% 30.26 in 10.0 mi ENE 16.1 mph - N/A Rain Light Rain
8:58 AM 65.7 °F 65.3 °F 99% 30.27 in 9.0 mi ENE 16.1 mph - 0.00 in Rain Light Rain
9:10 AM 66.2 °F 66.2 °F 100% 30.26 in 10.0 mi NE 15.0 mph - N/A   Mostly Cloudy
9:12 AM 66.2 °F 66.2 °F 100% 30.26 in 10.0 mi ENE 18.4 mph 23.0 mph N/A   Light Drizzle
9:22 AM 66.2 °F 66.2 °F 100% 30.27 in 10.0 mi ENE 15.0 mph - N/A   Mostly Cloudy
9:25 AM 66.2 °F 64.4 °F 94% 30.27 in 10.0 mi ENE 13.8 mph - N/A   Light Drizzle
9:37 AM 66.2 °F 66.2 °F 100% 30.28 in 10.0 mi NE 15.0 mph - N/A   Overcast
9:42 AM 66.2 °F 66.2 °F 100% 30.28 in 9.0 mi NE 15.0 mph - N/A Rain Light Rain
9:58 AM 66.2 °F 65.7 °F 98% 30.29 in 10.0 mi NE 16.1 mph - 0.00 in   Light Drizzle
10:28 AM 66.2 °F 66.2 °F 100% 30.28 in 9.0 mi NE 18.4 mph - N/A Rain Light Rain
10:33 AM 66.2 °F 66.2 °F 100% 30.28 in 8.0 mi ENE 17.3 mph - N/A Rain Light Rain
10:48 AM 66.2 °F 66.2 °F 100% 30.27 in 9.0 mi ENE 16.1 mph - N/A Rain Light Rain
10:58 AM 66.7 °F 66.7 °F 100% 30.27 in 8.0 mi NE 16.1 mph 23.0 mph 0.00 in   Light Drizzle
11:07 AM 68.0 °F 68.0 °F 100% 30.26 in 10.0 mi ENE 16.1 mph 24.2 mph N/A   Overcast
11:17 AM 68.0 °F 68.0 °F 100% 30.25 in 10.0 mi NE 17.3 mph 24.2 mph N/A   Light Drizzle
11:37 AM 68.0 °F 68.0 °F 100% 30.24 in 10.0 mi ENE 18.4 mph - N/A   Mostly Cloudy
11:42 AM 68.0 °F 68.0 °F 100% 30.24 in 10.0 mi ENE 17.3 mph 23.0 mph N/A   Mostly Cloudy
11:48 AM 68.0 °F 68.0 °F 100% 30.24 in 10.0 mi ENE 17.3 mph 24.2 mph N/A   Light Drizzle
11:57 AM 68.0 °F 66.2 °F 94% 30.23 in 10.0 mi NE 19.6 mph 25.3 mph N/A   Mostly Cloudy
11:58 AM 68.5 °F 67.1 °F 95% 30.24 in 10.0 mi ENE 19.6 mph 25.3 mph 0.00 in   Mostly Cloudy
12:01 PM 68.0 °F 66.2 °F 94% 30.23 in 10.0 mi NE 18.4 mph 25.3 mph N/A   Light Drizzle
12:15 PM 68.0 °F 66.2 °F 94% 30.22 in 10.0 mi NE 18.4 mph 26.5 mph N/A   Mostly Cloudy
12:22 PM 68.0 °F 66.2 °F 94% 30.22 in 10.0 mi ENE 18.4 mph 29.9 mph N/A   Light Drizzle
12:47 PM 68.0 °F 66.2 °F 94% 30.20 in 10.0 mi ENE 25.3 mph 29.9 mph N/A Rain Light Rain
12:52 PM 68.0 °F 66.2 °F 94% 30.20 in 9.0 mi NE 19.6 mph 29.9 mph N/A Rain Light Rain
12:58 PM 68.4 °F 65.5 °F 90% 30.21 in 10.0 mi NE 19.6 mph - 0.00 in   Light Drizzle
1:12 PM 68.0 °F 64.4 °F 88% 30.19 in 10.0 mi NE 19.6 mph 27.6 mph N/A   Mostly Cloudy
1:17 PM 68.0 °F 64.4 °F 88% 30.20 in 10.0 mi NE 16.1 mph 25.3 mph N/A   Light Drizzle
1:58 PM 67.3 °F 65.5 °F 94% 30.20 in 3.0 mi NE 19.6 mph - 0.01 in Rain Light Rain
2:08 PM 68.0 °F 66.2 °F 94% 30.19 in 4.0 mi NE 18.4 mph 24.2 mph N/A   Overcast
2:19 PM 68.0 °F 66.2 °F 94% 30.18 in 4.0 mi NE 21.9 mph 26.5 mph N/A Rain Light Rain
2:44 PM 68.0 °F 68.0 °F 100% 30.18 in 4.0 mi NE 18.4 mph - N/A   Overcast
2:47 PM 68.0 °F 68.0 °F 100% 30.18 in 4.0 mi NE 20.7 mph 25.3 mph N/A Rain Light Rain
2:57 PM 68.0 °F 68.0 °F 100% 30.17 in 4.0 mi NE 19.6 mph 26.5 mph N/A Rain Light Rain
2:58 PM 67.1 °F 67.1 °F 100% 30.18 in 4.0 mi NE 19.6 mph 26.5 mph 0.01 in Rain Light Rain
3:08 PM 68.0 °F 68.0 °F 100% 30.18 in 4.0 mi NE 18.4 mph 25.3 mph N/A Rain Light Rain
3:18 PM 68.0 °F 68.0 °F 100% 30.19 in 4.0 mi NE 18.4 mph 23.0 mph N/A Rain Light Rain
3:23 PM 68.0 °F 68.0 °F 100% 30.19 in 5.0 mi NE 18.4 mph - N/A Rain Light Rain
3:33 PM 68.0 °F 68.0 °F 100% 30.18 in 5.0 mi NE 18.4 mph 24.2 mph N/A Rain Light Rain
3:38 PM 68.0 °F 68.0 °F 100% 30.18 in 4.0 mi NE 18.4 mph 24.2 mph N/A Rain Light Rain
3:58 PM 67.3 °F 67.3 °F 100% 30.20 in 4.0 mi NE 17.3 mph 25.3 mph 0.02 in Rain Light Rain
4:18 PM 68.0 °F 68.0 °F 100% 30.18 in 2.5 mi NE 17.3 mph - N/A Rain Heavy Rain
4:33 PM 68.0 °F 68.0 °F 100% 30.17 in 3.0 mi NE 20.7 mph 25.3 mph N/A Rain Light Rain
4:38 PM 68.0 °F 68.0 °F 100% 30.17 in 4.0 mi NE 18.4 mph - N/A Rain Light Rain
4:43 PM 68.0 °F 68.0 °F 100% 30.18 in 2.0 mi NE 16.1 mph - N/A Rain Light Rain
4:48 PM 68.0 °F 68.0 °F 100% 30.19 in 2.0 mi NE 16.1 mph - N/A Rain Light Rain
4:58 PM 67.3 °F 67.3 °F 100% 30.20 in 2.0 mi NE 17.3 mph - 0.03 in Rain Light Rain
5:08 PM 68.0 °F 68.0 °F 100% 30.18 in 4.0 mi ENE 18.4 mph - N/A Rain Light Rain
5:18 PM 68.0 °F 68.0 °F 100% 30.18 in 5.0 mi NE 16.1 mph 23.0 mph N/A Rain Light Rain
5:23 PM 68.0 °F 68.0 °F 100% 30.19 in 2.5 mi NE 16.1 mph 24.2 mph N/A Rain Light Rain
5:58 PM 67.6 °F 67.6 °F 100% 30.19 in 2.5 mi NE 16.1 mph - 0.01 in Rain Light Rain
6:27 PM 68.0 °F 68.0 °F 100% 30.19 in 3.0 mi NE 13.8 mph - N/A Rain Light Rain
6:58 PM 67.8 °F 67.8 °F 100% 30.21 in 5.0 mi ENE 13.8 mph - 0.01 in Rain Light Rain
6:59 PM 68.0 °F 68.0 °F 100% 30.20 in 8.0 mi ENE 13.8 mph - N/A Rain Light Rain
7:58 PM 68.2 °F 68.2 °F 100% 30.22 in 5.0 mi ENE 16.1 mph - 0.01 in Rain Light Rain
8:43 PM 68.0 °F 68.0 °F 100% 30.22 in 9.0 mi ENE 16.1 mph - N/A   Light Drizzle
8:58 PM 68.7 °F 68.7 °F 100% 30.23 in 8.0 mi ENE 15.0 mph - 0.01 in   Light Drizzle
9:03 PM 68.0 °F 68.0 °F 100% 30.22 in 9.0 mi ENE 13.8 mph - N/A   Light Drizzle
9:05 PM 68.0 °F 68.0 °F 100% 30.22 in 10.0 mi ENE 13.8 mph - N/A   Mostly Cloudy
9:06 PM 68.0 °F 68.0 °F 100% 30.22 in 10.0 mi ENE 15.0 mph - N/A   Light Drizzle
9:14 PM 69.8 °F 69.8 °F 100% 30.23 in 10.0 mi ENE 12.7 mph - N/A   Mostly Cloudy
9:35 PM 69.8 °F 69.8 °F 100% 30.23 in 10.0 mi ENE 15.0 mph - N/A   Light Drizzle
9:58 PM 69.8 °F 69.8 °F 100% 30.23 in 6.0 mi ENE 11.5 mph - 0.00 in Rain Light Rain
10:08 PM 69.8 °F 69.8 °F 100% 30.22 in 6.0 mi ENE 12.7 mph - N/A Rain Light Rain
10:23 PM 69.8 °F 69.8 °F 100% 30.22 in 5.0 mi ENE 16.1 mph - N/A Rain Light Rain
10:38 PM 69.8 °F 69.8 °F 100% 30.21 in 5.0 mi ENE 15.0 mph 23.0 mph N/A Rain Light Rain
10:58 PM 69.8 °F 69.8 °F 100% 30.22 in 8.0 mi ENE 15.0 mph 24.2 mph 0.02 in   Light Drizzle
11:03 PM 69.8 °F 69.8 °F 100% 30.21 in 10.0 mi ENE 16.1 mph - N/A   Light Drizzle
11:08 PM 69.8 °F 69.8 °F 100% 30.21 in 10.0 mi ENE 13.8 mph - N/A   Light Drizzle
11:10 PM 69.8 °F 69.8 °F 100% 30.21 in 10.0 mi ENE 12.7 mph - N/A   Mostly Cloudy
11:18 PM 69.8 °F 69.8 °F 100% 30.21 in 8.0 mi ENE 13.8 mph - N/A Rain Light Rain
11:28 PM 69.8 °F 69.8 °F 100% 30.21 in 5.0 mi ENE 10.4 mph - N/A Rain Light Rain
11:41 PM 69.8 °F 69.8 °F 100% 30.19 in 10.0 mi ENE 13.8 mph - N/A   Mostly Cloudy
11:58 PM 69.8 °F 69.8 °F 100% 30.20 in 10.0 mi ENE 12.7 mph - 0.00 in   Mostly Cloudy